This is the latest recevied weather packets stored in our database for station/object KI7CSN-13. If no packets are shown the sender has not sent any weather packets the latest 10 day(s).
| Time | Temp. | Humidity | Pressure | Rain* | Wind** | Luminosity | Snow |
|---|---|---|---|---|---|---|---|
| 1777943262 | 17.22° C | 27% | 979 hPa | 0 mm | - | - | - |
| 1777942962 | 17.22° C | 27% | 979 hPa | 0 mm | - | - | - |
| 1777942662 | 17.22° C | 25% | 979 hPa | 0 mm | - | - | - |
| 1777942362 | 17.22° C | 25% | 979 hPa | 0 mm | - | - | - |
| 1777942062 | 17.22° C | 25% | 979.1 hPa | 0 mm | - | - | - |
| 1777941762 | 17.22° C | 23% | 979.1 hPa | 0 mm | - | - | - |
| 1777941462 | 17.22° C | 24% | 979.1 hPa | 0 mm | - | - | - |
| 1777941162 | 17.22° C | 24% | 979.3 hPa | 0 mm | - | - | - |
| 1777940862 | 17.78° C | 22% | 979 hPa | 0 mm | - | - | - |
| 1777940562 | 17.78° C | 22% | 979 hPa | 0 mm | - | - | - |
| 1777940262 | 17.78° C | 22% | 978.9 hPa | 0 mm | - | - | - |
| 1777939962 | 18.33° C | 22% | 979 hPa | 0 mm | - | - | - |
| 1777939663 | 18.33° C | 22% | 979 hPa | 0 mm | - | - | - |
| 1777939363 | 18.89° C | 22% | 978.9 hPa | 0 mm | - | - | - |
| 1777939062 | 18.89° C | 21% | 979 hPa | 0 mm | - | - | - |
| 1777938762 | 18.89° C | 21% | 979 hPa | 0 mm | - | - | - |
| 1777938463 | 18.89° C | 20% | 979 hPa | 0 mm | - | - | - |
| 1777938162 | 19.44° C | 20% | 979 hPa | 0 mm | - | - | - |
| 1777937863 | 20° C | 20% | 978.9 hPa | 0 mm | - | - | - |
| 1777937563 | 19.44° C | 20% | 978.9 hPa | 0 mm | - | - | - |
| 1777937263 | 19.44° C | 22% | 978.9 hPa | 0 mm | - | - | - |
| 1777936963 | 20° C | 22% | 978.7 hPa | 0 mm | - | - | - |
| 1777936663 | 19.44° C | 21% | 978.9 hPa | 0 mm | - | - | - |
| 1777936363 | 19.44° C | 22% | 978.9 hPa | 0 mm | - | - | - |
| 1777936063 | 19.44° C | 21% | 978.9 hPa | 0 mm | - | - | - |
* Rain latest hour (hover to see other rain measurements)
** Current wind speed in m/s (hover to see current wind gust speed)